createdAt,value
2022-12-09T00:01:48.246Z,99602.16
2022-12-09T00:04:49.883Z,99601.44
2022-12-09T00:07:51.576Z,99590.13
2022-12-09T00:10:53.137Z,99587.72
2022-12-09T00:13:56.927Z,99596.47
2022-12-09T00:16:58.422Z,99585.94
2022-12-09T00:20:00.261Z,99593.75
2022-12-09T00:23:01.822Z,99595.47
2022-12-09T00:26:03.421Z,99590.34
2022-12-09T00:29:04.997Z,99593.84
2022-12-09T00:32:06.508Z,99588.66
2022-12-09T00:35:08.596Z,99591.16
2022-12-09T00:38:10.038Z,99590.28
2022-12-09T00:41:12.823Z,99580.72
2022-12-09T00:44:14.329Z,99584.25
2022-12-09T00:47:15.884Z,99583.44
2022-12-09T00:50:17.867Z,99580.94
2022-12-09T00:53:19.483Z,99577.47
2022-12-09T00:56:22.799Z,99573.19
2022-12-09T00:59:24.220Z,99569.75
2022-12-09T01:02:25.721Z,99562.81
2022-12-09T01:05:27.647Z,99568.09
2022-12-09T01:08:29.234Z,99570.72
2022-12-09T01:11:31.934Z,99580.38
2022-12-09T01:14:33.532Z,99572.56
2022-12-09T01:17:36.902Z,99578.72
2022-12-09T01:20:38.876Z,99572.66
2022-12-09T01:23:40.655Z,99575.28
2022-12-09T01:26:42.817Z,99577.00
2022-12-09T01:29:44.364Z,99575.25
2022-12-09T01:32:46.925Z,99576.13
2022-12-09T01:35:48.631Z,99575.28
2022-12-09T01:38:51.244Z,99570.00
2022-12-09T01:41:52.924Z,99571.81
2022-12-09T01:45:22.882Z,99571.09
2022-12-09T01:48:29.839Z,99558.09
2022-12-09T01:51:31.670Z,99566.69
2022-12-09T01:54:34.010Z,99561.47
2022-12-09T01:57:37.312Z,99566.69
2022-12-09T02:00:39.445Z,99568.41
2022-12-09T02:03:41.142Z,99559.69
2022-12-09T02:06:43.485Z,99555.31
2022-12-09T02:09:53.337Z,99553.50
2022-12-09T02:13:27.411Z,99544.69
2022-12-09T02:16:36.319Z,99543.88
2022-12-09T02:20:02.719Z,99532.63
2022-12-09T02:23:12.145Z,99532.69
2022-12-09T02:26:19.062Z,99532.72
2022-12-09T02:29:32.045Z,99525.00
2022-12-09T02:33:12.294Z,99525.88
2022-12-09T02:36:18.174Z,99516.34
2022-12-09T02:39:28.293Z,99515.44
2022-12-09T02:42:35.212Z,99512.00
2022-12-09T02:45:40.997Z,99512.97
2022-12-09T02:48:49.446Z,99510.44
2022-12-09T02:51:51.714Z,99506.09
2022-12-09T02:54:54.134Z,99498.22
2022-12-09T02:57:59.996Z,99493.84
2022-12-09T03:01:04.491Z,99490.41
2022-12-09T03:04:10.158Z,99485.25
2022-12-09T03:07:24.713Z,99499.28
2022-12-09T03:10:43.579Z,99487.13
2022-12-09T03:14:00.091Z,99478.50
2022-12-09T03:17:19.651Z,99477.69
2022-12-09T03:20:26.474Z,99473.69
2022-12-09T03:23:30.516Z,99479.94
2022-12-09T03:26:35.171Z,99472.13
2022-12-09T03:29:40.567Z,99465.22
2022-12-09T03:32:44.466Z,99461.69
2022-12-09T03:35:51.397Z,99465.22
2022-12-09T03:38:54.965Z,99464.31
2022-12-09T03:42:01.645Z,99463.56
2022-12-09T03:45:07.662Z,99465.38
2022-12-09T03:48:10.941Z,99465.44
2022-12-09T03:51:19.079Z,99462.25
2022-12-09T03:54:25.036Z,99473.56
2022-12-09T03:57:29.189Z,99459.72
2022-12-09T04:00:31.141Z,99463.91
2022-12-09T04:03:33.782Z,99461.25
2022-12-09T04:06:35.762Z,99467.44
2022-12-09T04:09:37.273Z,99453.66
2022-12-09T04:12:40.395Z,99451.81
2022-12-09T04:15:41.934Z,99455.31
2022-12-09T04:18:44.057Z,99457.06
2022-12-09T04:21:45.575Z,99456.19
2022-12-09T04:24:46.945Z,99455.31
2022-12-09T04:27:48.608Z,99456.19
2022-12-09T04:30:51.233Z,99445.22
2022-12-09T04:33:52.783Z,99442.09
2022-12-09T04:36:54.254Z,99447.41
2022-12-09T04:39:55.665Z,99443.09
2022-12-09T04:42:58.128Z,99431.03
2022-12-09T04:46:02.545Z,99431.09
2022-12-09T04:49:04.180Z,99438.84
2022-12-09T04:52:05.634Z,99431.00
2022-12-09T04:55:08.295Z,99419.75
2022-12-09T04:58:10.227Z,99426.69
2022-12-09T05:01:17.187Z,99426.78
2022-12-09T05:04:19.784Z,99418.13
2022-12-09T05:07:23.399Z,99415.59
2022-12-09T05:10:25.113Z,99411.28
2022-12-09T05:13:29.839Z,99406.06
2022-12-09T05:16:31.754Z,99403.44
2022-12-09T05:19:33.340Z,99400.00
2022-12-09T05:22:34.826Z,99397.41
2022-12-09T05:25:36.686Z,99397.53
2022-12-09T05:28:38.503Z,99383.66
2022-12-09T05:31:40.455Z,99388.88
2022-12-09T05:34:42.860Z,99389.88
2022-12-09T05:37:44.835Z,99387.53
2022-12-09T05:40:46.595Z,99381.53
2022-12-09T05:43:48.410Z,99378.84
2022-12-09T05:46:50.020Z,99381.28
2022-12-09T05:49:51.697Z,99377.06
2022-12-09T05:52:53.414Z,99371.09
2022-12-09T05:55:55.069Z,99382.41
2022-12-09T05:58:57.229Z,99378.16
2022-12-09T06:02:00.017Z,99375.56
2022-12-09T06:05:03.246Z,99368.59
2022-12-09T06:08:07.146Z,99367.78
2022-12-09T06:11:18.059Z,99374.78
2022-12-09T06:14:19.790Z,99377.47
2022-12-09T06:17:21.516Z,99380.84
2022-12-09T06:20:23.392Z,99378.16
2022-12-09T06:23:26.369Z,99375.66
2022-12-09T06:26:29.894Z,99379.19
2022-12-09T06:29:31.999Z,99375.66
2022-12-09T06:32:33.746Z,99371.28
2022-12-09T06:35:35.535Z,99379.03
2022-12-09T06:38:38.269Z,99381.56
2022-12-09T06:41:42.131Z,99375.50
2022-12-09T06:44:44.301Z,99377.31
2022-12-09T06:47:46.915Z,99369.69
2022-12-09T06:50:50.905Z,99373.22
2022-12-09T06:53:53.332Z,99378.63
2022-12-09T06:56:55.082Z,99376.06
2022-12-09T06:59:56.862Z,99368.25
2022-12-09T07:02:58.524Z,99370.88
2022-12-09T07:06:01.712Z,99370.81
2022-12-09T07:09:07.282Z,99372.53
2022-12-09T07:12:09.261Z,99369.97
2022-12-09T07:15:12.137Z,99376.91
2022-12-09T07:18:14.460Z,99376.19
2022-12-09T07:21:18.114Z,99375.34
2022-12-09T07:24:20.614Z,99371.16
2022-12-09T07:27:22.839Z,99369.56
2022-12-09T07:30:24.453Z,99367.91
2022-12-09T07:33:26.410Z,99365.31
2022-12-09T07:36:30.330Z,99367.97
2022-12-09T07:39:32.296Z,99377.47
2022-12-09T07:42:33.757Z,99369.56
2022-12-09T07:45:38.797Z,99374.63
2022-12-09T07:48:40.794Z,99372.97
2022-12-09T07:51:43.342Z,99371.22
2022-12-09T07:54:45.122Z,99372.09
2022-12-09T07:57:46.653Z,99371.31
2022-12-09T08:00:48.516Z,99372.16
2022-12-09T08:03:51.545Z,99379.06
2022-12-09T08:06:53.555Z,99371.16
2022-12-09T08:09:56.503Z,99369.25
2022-12-09T08:12:58.742Z,99370.13
2022-12-09T08:16:11.551Z,99368.38
2022-12-09T08:19:13.560Z,99359.66
2022-12-09T08:22:15.379Z,99359.53
2022-12-09T08:25:17.167Z,99360.25
2022-12-09T08:28:19.443Z,99357.56
2022-12-09T08:31:24.582Z,99356.59
2022-12-09T08:34:26.907Z,99347.88
2022-12-09T08:37:28.600Z,99347.00
2022-12-09T08:40:30.216Z,99342.69
2022-12-09T08:43:31.966Z,99340.06
2022-12-09T08:46:34.694Z,99340.69
2022-12-09T08:49:36.553Z,99337.19
2022-12-09T08:52:40.736Z,99328.47
2022-12-09T08:55:43.032Z,99325.81
2022-12-09T08:58:44.718Z,99334.44
2022-12-09T09:01:47.505Z,99338.59
2022-12-09T09:04:49.667Z,99322.19
2022-12-09T09:07:51.637Z,99329.88
2022-12-09T09:10:55.092Z,99324.59
2022-12-09T09:13:57.000Z,99330.00
2022-12-09T09:16:59.185Z,99335.88
2022-12-09T09:20:01.155Z,99334.81
2022-12-09T09:23:03.626Z,99329.47
2022-12-09T09:26:09.880Z,99324.97
2022-12-09T09:29:12.675Z,99324.06
2022-12-09T09:32:14.401Z,99319.56
2022-12-09T09:35:16.667Z,99316.28
2022-12-09T09:38:18.824Z,99324.09
2022-12-09T09:41:39.341Z,99313.50
2022-12-09T09:44:47.745Z,99304.03
2022-12-09T09:48:02.919Z,99296.25
2022-12-09T09:51:11.788Z,99306.44
2022-12-09T09:54:15.353Z,99299.16
2022-12-09T09:57:25.604Z,99298.03
2022-12-09T10:00:35.253Z,99298.53
2022-12-09T10:03:50.019Z,99293.19
2022-12-09T10:06:55.164Z,99284.19
2022-12-09T10:10:05.937Z,99282.28
2022-12-09T10:13:30.641Z,99277.09
2022-12-09T10:17:10.034Z,99279.88
2022-12-09T10:20:17.570Z,99273.28
2022-12-09T10:23:21.566Z,99277.94
2022-12-09T10:26:27.437Z,99276.25
2022-12-09T10:29:55.283Z,99267.44
2022-12-09T10:32:57.316Z,99263.03
2022-12-09T10:35:59.462Z,99257.75
2022-12-09T10:39:01.097Z,99256.16
2022-12-09T10:42:22.055Z,99256.03
2022-12-09T10:45:23.905Z,99254.38
2022-12-09T10:48:33.444Z,99252.69
2022-12-09T10:51:36.386Z,99261.84
2022-12-09T10:54:41.039Z,99255.06
2022-12-09T10:57:42.669Z,99260.22
2022-12-09T11:01:00.582Z,99253.25
2022-12-09T11:04:13.281Z,99249.38
2022-12-09T11:07:24.930Z,99245.78
2022-12-09T11:10:29.443Z,99241.06
2022-12-09T11:13:41.238Z,99246.34
2022-12-09T11:16:43.336Z,99235.13
2022-12-09T11:19:50.503Z,99224.69
2022-12-09T11:23:13.379Z,99228.03
2022-12-09T11:26:32.368Z,99228.97
2022-12-09T11:29:33.868Z,99222.13
2022-12-09T11:32:53.053Z,99218.78
2022-12-09T11:39:21.755Z,99225.44
2022-12-09T11:42:24.584Z,99221.03
2022-12-09T11:45:33.884Z,99215.97
2022-12-09T11:48:41.676Z,99209.06
2022-12-09T11:52:04.305Z,99202.94
2022-12-09T11:55:22.466Z,99208.00
2022-12-09T11:58:46.660Z,99206.91
2022-12-09T12:01:56.179Z,99204.78
2022-12-09T12:05:27.092Z,99196.69
2022-12-09T12:08:35.665Z,99196.78
2022-12-09T12:12:13.779Z,99192.00
2022-12-09T12:15:21.372Z,99195.84
2022-12-09T12:18:23.481Z,99185.38
2022-12-09T12:21:43.402Z,99182.63
2022-12-09T12:25:02.077Z,99182.28
2022-12-09T12:28:25.947Z,99182.78
2022-12-09T12:31:45.103Z,99179.28
2022-12-09T12:35:08.716Z,99181.66
2022-12-09T12:38:38.026Z,99186.00
2022-12-09T12:41:50.566Z,99188.97
2022-12-09T12:45:34.923Z,99182.53
2022-12-09T12:48:54.149Z,99184.19
2022-12-09T12:52:39.478Z,99179.84
2022-12-09T12:55:43.418Z,99187.66
2022-12-09T12:59:08.824Z,99184.31
2022-12-09T13:02:29.155Z,99185.94
2022-12-09T13:05:44.877Z,99179.78
2022-12-09T13:08:57.084Z,99176.44
2022-12-09T13:12:15.292Z,99176.41
2022-12-09T13:15:20.424Z,99190.88
2022-12-09T13:18:28.735Z,99179.50
2022-12-09T13:21:30.184Z,99189.22
2022-12-09T13:24:44.952Z,99183.03
2022-12-09T13:27:55.594Z,99179.59
2022-12-09T13:30:59.386Z,99173.16
2022-12-09T13:34:07.207Z,99179.91
2022-12-09T13:37:31.639Z,99182.34
2022-12-09T13:40:36.713Z,99177.53
2022-12-09T13:43:40.248Z,99181.22
2022-12-09T13:46:42.859Z,99178.63
2022-12-09T13:49:55.550Z,99179.31
2022-12-09T13:53:01.573Z,99181.53
2022-12-09T13:56:07.014Z,99177.16
2022-12-09T13:59:40.480Z,99173.91
2022-12-09T14:02:58.422Z,99184.47
2022-12-09T14:06:03.933Z,99178.28
2022-12-09T14:09:28.362Z,99185.50
2022-12-09T14:12:30.628Z,99179.47
2022-12-09T14:15:32.065Z,99178.59
2022-12-09T14:18:34.055Z,99182.09
2022-12-09T14:21:35.462Z,99179.59
2022-12-09T14:24:37.026Z,99186.41
2022-12-09T14:27:38.520Z,99194.31
2022-12-09T14:30:52.323Z,99200.34
2022-12-09T14:33:53.954Z,99203.91
2022-12-09T14:37:24.740Z,99203.84
2022-12-09T14:40:52.545Z,99213.72
2022-12-09T14:43:58.439Z,99212.13
2022-12-09T14:47:14.204Z,99211.09
2022-12-09T14:50:20.123Z,99220.69
2022-12-09T14:53:25.333Z,99218.94
2022-12-09T14:56:29.397Z,99219.00
2022-12-09T14:59:31.804Z,99219.94
2022-12-09T15:02:33.558Z,99225.31
2022-12-09T15:05:35.014Z,99225.31
2022-12-09T15:08:41.355Z,99229.13
2022-12-09T15:11:42.880Z,99225.66
2022-12-09T15:14:45.163Z,99231.88
2022-12-09T15:17:54.793Z,99231.25
2022-12-09T15:21:01.410Z,99235.75
2022-12-09T15:24:03.100Z,99236.59
2022-12-09T15:27:04.622Z,99238.28
2022-12-09T15:30:24.033Z,99243.44
2022-12-09T15:33:26.803Z,99245.31
2022-12-09T15:36:38.164Z,99248.75
2022-12-09T15:39:52.053Z,99255.53
2022-12-09T15:42:54.512Z,99254.53
2022-12-09T15:45:56.292Z,99254.50
2022-12-09T15:49:00.102Z,99255.34
2022-12-09T15:52:04.505Z,99255.41
2022-12-09T15:55:10.960Z,99258.84
2022-12-09T15:58:16.187Z,99255.59
2022-12-09T16:01:32.081Z,99257.31
2022-12-09T16:04:46.256Z,99261.66
2022-12-09T16:07:56.976Z,99257.22
2022-12-09T16:10:58.500Z,99257.19
2022-12-09T16:14:00.907Z,99248.59
2022-12-09T16:17:03.981Z,99257.41
2022-12-09T16:20:32.842Z,99259.19
2022-12-09T16:23:34.476Z,99254.94
2022-12-09T16:26:39.631Z,99259.59
2022-12-09T16:29:49.626Z,99256.41
2022-12-09T16:32:56.154Z,99253.19
2022-12-09T16:36:06.491Z,99258.31
2022-12-09T16:39:07.920Z,99263.16
2022-12-09T16:42:21.756Z,99252.56
2022-12-09T16:45:36.426Z,99260.47
2022-12-09T16:48:37.989Z,99256.94
2022-12-09T16:51:40.145Z,99257.78
2022-12-09T16:54:44.180Z,99269.25
2022-12-09T16:57:45.937Z,99263.09
2022-12-09T17:00:48.559Z,99268.31
2022-12-09T17:03:55.821Z,99269.16
2022-12-09T17:06:57.344Z,99274.38
2022-12-09T17:09:58.788Z,99264.88
2022-12-09T17:13:00.627Z,99278.97
2022-12-09T17:16:02.426Z,99275.47
2022-12-09T17:19:05.514Z,99280.56
2022-12-09T17:22:06.948Z,99278.88
2022-12-09T17:25:10.140Z,99283.22
2022-12-09T17:28:11.616Z,99283.97
2022-12-09T17:31:15.677Z,99279.47
2022-12-09T17:34:18.165Z,99285.44
2022-12-09T17:37:19.596Z,99285.44
2022-12-09T17:40:20.992Z,99280.22
2022-12-09T17:43:22.680Z,99289.09
2022-12-09T17:46:24.479Z,99287.22
2022-12-09T17:49:26.020Z,99295.03
2022-12-09T17:52:27.475Z,99301.19
2022-12-09T17:55:28.875Z,99296.03
2022-12-09T17:58:30.329Z,99296.03
2022-12-09T18:01:33.996Z,99302.84
2022-12-09T18:04:35.583Z,99302.84
2022-12-09T18:07:37.003Z,99308.16
2022-12-09T18:10:38.522Z,99308.47
2022-12-09T18:13:39.974Z,99314.00
2022-12-09T18:16:41.848Z,99319.63
2022-12-09T18:19:43.293Z,99311.88
2022-12-09T18:22:44.751Z,99323.06
2022-12-09T18:25:46.249Z,99322.97
2022-12-09T18:28:47.698Z,99324.84
2022-12-09T18:31:54.213Z,99314.38
2022-12-09T18:34:55.856Z,99318.72
2022-12-09T18:38:07.023Z,99324.69
2022-12-09T18:41:24.474Z,99323.94
2022-12-09T18:44:26.419Z,99325.78
2022-12-09T18:47:27.807Z,99330.34
2022-12-09T18:50:29.212Z,99335.75
2022-12-09T18:53:30.805Z,99321.03
2022-12-09T18:56:33.332Z,99322.81
2022-12-09T18:59:34.880Z,99327.13
2022-12-09T19:02:36.323Z,99332.31
2022-12-09T19:05:39.525Z,99330.44
2022-12-09T19:08:41.971Z,99337.53
2022-12-09T19:11:44.870Z,99338.38
2022-12-09T19:14:46.257Z,99329.53
2022-12-09T19:17:47.652Z,99339.00
2022-12-09T19:20:49.031Z,99345.16
2022-12-09T19:23:51.065Z,99334.00
2022-12-09T19:26:54.175Z,99349.63
2022-12-09T19:29:55.593Z,99342.84
2022-12-09T19:32:57.086Z,99349.81
2022-12-09T19:36:03.233Z,99352.47
2022-12-09T19:39:08.071Z,99352.50
2022-12-09T19:42:09.550Z,99342.88
2022-12-09T19:45:14.149Z,99347.16
2022-12-09T19:48:16.142Z,99355.03
2022-12-09T19:51:21.313Z,99363.72
2022-12-09T19:54:28.244Z,99366.38
2022-12-09T19:57:30.222Z,99364.69
2022-12-09T20:00:33.701Z,99364.59
2022-12-09T20:03:39.881Z,99370.72
2022-12-09T20:06:42.080Z,99371.69
2022-12-09T20:09:43.522Z,99381.16
2022-12-09T20:12:45.382Z,99375.88
2022-12-09T20:15:46.853Z,99375.94
2022-12-09T20:18:49.315Z,99371.69
2022-12-09T20:21:50.692Z,99381.22
2022-12-09T20:24:52.101Z,99375.41
2022-12-09T20:27:56.804Z,99378.84
2022-12-09T20:31:05.963Z,99384.97
2022-12-09T20:34:11.978Z,99386.75
2022-12-09T20:37:13.409Z,99381.53
2022-12-09T20:40:14.928Z,99387.72
2022-12-09T20:43:16.399Z,99384.41
2022-12-09T20:46:20.170Z,99388.78
2022-12-09T20:49:26.228Z,99390.59
2022-12-09T20:52:27.916Z,99394.91
2022-12-09T20:55:29.317Z,99394.00
2022-12-09T20:58:30.788Z,99406.06
2022-12-09T21:01:34.799Z,99396.50
2022-12-09T21:04:36.285Z,99394.88
2022-12-09T21:07:37.712Z,99398.47
2022-12-09T21:10:39.132Z,99401.84
2022-12-09T21:13:43.341Z,99403.66
2022-12-09T21:16:47.456Z,99406.28
2022-12-09T21:19:48.907Z,99403.69
2022-12-09T21:23:10.514Z,99398.47
2022-12-09T21:26:14.249Z,99409.88
2022-12-09T21:29:16.003Z,99412.50
2022-12-09T21:32:17.873Z,99409.97
2022-12-09T21:35:19.521Z,99407.34
2022-12-09T21:38:20.896Z,99404.97
2022-12-09T21:41:26.200Z,99420.53
2022-12-09T21:44:28.205Z,99413.56
2022-12-09T21:47:29.611Z,99410.97
2022-12-09T21:50:31.407Z,99406.69
2022-12-09T21:53:33.415Z,99406.06
2022-12-09T21:56:36.605Z,99404.44
2022-12-09T21:59:38.008Z,99397.59
2022-12-09T22:02:41.272Z,99401.94
2022-12-09T22:05:43.076Z,99408.84
2022-12-09T22:08:45.389Z,99414.81
2022-12-09T22:11:46.842Z,99426.09
2022-12-09T22:14:48.283Z,99417.38
2022-12-09T22:17:49.681Z,99420.72
2022-12-09T22:24:14.129Z,99424.16
2022-12-09T22:27:15.582Z,99419.81
2022-12-09T22:30:17.502Z,99427.53
2022-12-09T22:33:18.954Z,99427.72
2022-12-09T22:36:22.696Z,99432.06
2022-12-09T22:39:24.108Z,99437.22
2022-12-09T22:42:25.492Z,99438.16
2022-12-09T22:45:26.911Z,99431.28
2022-12-09T22:48:28.308Z,99431.28
2022-12-09T22:51:31.601Z,99433.09
2022-12-09T22:54:33.008Z,99436.69
2022-12-09T22:57:34.415Z,99437.56
2022-12-09T23:00:35.818Z,99440.09
2022-12-09T23:03:37.795Z,99441.91
2022-12-09T23:06:40.087Z,99447.00
2022-12-09T23:09:41.495Z,99441.75
2022-12-09T23:12:42.881Z,99446.94
2022-12-09T23:15:44.325Z,99440.09
2022-12-09T23:18:46.294Z,99443.56
2022-12-09T23:21:47.732Z,99438.44
2022-12-09T23:24:49.129Z,99443.56
2022-12-09T23:27:50.507Z,99446.06
2022-12-09T23:30:52.005Z,99447.78
2022-12-09T23:33:54.749Z,99452.13
2022-12-09T23:36:56.127Z,99449.38
2022-12-09T23:39:58.011Z,99453.78
2022-12-09T23:42:59.685Z,99454.72
2022-12-09T23:46:02.714Z,99459.00
2022-12-09T23:49:05.323Z,99458.97
2022-12-09T23:52:06.752Z,99440.69
2022-12-09T23:55:08.623Z,99445.09
2022-12-09T23:58:10.075Z,99444.28
